logo
Search for airport 
image banner adimage banner adimage banner ad
image banner ad

UG0006 - Ochkhamuri

Located in Kobuleti, Georgia

ICAO - , IATA -

Data provided by Airmate  

General information

Coordinates: N41°50'26" E41°47'58"
Elevation is 33 feet MSL.
Magnetic variation is 7° East
View others Airports in Adjara

Operational data

Special qualification required
Current time UTC:
Current local time:
Weather at : UGSB - Batumi ( 31 km )
METAR: UGSB 220900Z 26006KT CAVOK 20/16 Q1015 NOSIG
View NOTAMs / SUP AIP / TFR affecting this airport [VIEW]
Communications frequencies: [VIEW]

Runways:

Airport contact information

Address: Kobuleti Georgia

Satellite view of UG0006